Terminal Aerodrome Forecast
Issued by NWS

Current Version | Previous Version | Text Only | Print | Product List | Glossary Off
Versions: 1 2 3 4 5 6 7 8 9 10 11 12 13 14 15 16 17 18 19 20 21 22 23 24 25

000
FTUS41 KRLX 231126
TAFCKB
TAF
KCKB 231126Z 2312/2412 05012G19KT 6SM -RA OVC035
     FM231300 05012G19KT 5SM -RA OVC025
     FM231500 06013G22KT 4SM -RA OVC014
     FM231900 05009KT 2SM -RA OVC009
     FM232100 04009KT 3SM -RA OVC008
     FM232300 04010KT P6SM OVC008
     FM240400 36006KT P6SM OVC011=

USA.gov is the U.S. government's official web portal to all federal, state and local government web resources and services.